Terminal Aerodrome Forecast
Issued by NWS Grand Forks, ND

Home | Current Version | Previous Version | Graphics & Text | Print | Product List | Glossary On
Versions: 1 2 3 4 5 6 7 8 9 10 11 12 13 14
660
FTUS43 KFGF 190536
TAFGFK
TAF
KGFK 190536Z 1906/2006 18012KT P6SM SKC
     FM190800 18008KT P6SM SKC
     FM200100 17009KT P6SM BKN070
     FM200500 18009KT P6SM BKN025=

USA.gov is the U.S. government's official web portal to all federal, state and local government web resources and services.